Date,TemperatureHighF,TemperatureAvgF,TemperatureLowF,DewpointHighF,DewpointAvgF,DewpointLowF,HumidityHigh,HumidityAvg,HumidityLow,PressureMaxIn,PressureMinIn,WindSpeedMaxMPH,WindSpeedAvgMPH,GustSpeedMaxMPH,PrecipitationSumIn
2013-10-1,77,72,70,64,63,63,79,73,62,29.89,29.85,1,0,0,0.00
2013-10-2,81,73,65,70,67,62,96,81,66,29.92,29.78,11,4,0,0.00
2013-10-3,86,77,70,70,68,66,89,74,55,29.80,29.62,16,9,0,0.00
2013-10-4,86,74,60,70,64,38,86,72,49,29.93,29.65,17,10,0,0.00
2013-10-5,63,54,48,39,35,31,67,49,34,30.11,29.92,14,7,0,0.00
2013-10-6,68,55,47,43,35,28,70,47,22,30.06,29.98,11,5,0,0.00
2013-10-7,73,57,43,43,39,34,78,53,29,30.20,30.06,3,0,0,0.00
2013-10-8,75,62,48,50,46,42,80,58,36,30.09,29.94,11,4,0,0.00
2013-10-9,78,64,52,56,52,47,85,66,43,30.01,29.92,12,5,0,0.00
2013-10-10,79,67,56,61,57,52,88,70,54,29.98,29.77,12,6,0,0.00
2013-10-11,82,70,63,63,52,36,83,58,20,29.86,29.67,17,8,0,0.00
2013-10-12,70,60,52,46,40,-100,68,52,33,30.21,29.86,12,6,0,0.00
2013-10-13,68,59,48,51,44,39,72,59,43,30.31,30.19,13,6,0,0.00
2013-10-14,64,60,57,63,55,47,95,84,58,30.19,29.81,13,8,0,0.00
2013-10-15,60,53,47,56,42,37,95,68,48,30.15,29.88,10,5,0,0.00
2013-10-16,54,46,38,43,38,35,93,76,56,30.18,30.06,4,1,0,0.00
2013-10-17,67,51,38,46,40,34,96,70,31,30.08,29.95,9,2,0,0.00
2013-10-18,49,40,34,40,36,32,93,84,71,30.21,30.05,11,5,0,0.00
2013-10-19,65,46,32,42,34,-100,94,70,37,30.20,29.96,12,3,0,0.00
2013-10-20,71,56,41,49,42,36,83,63,40,29.96,29.80,13,4,0,0.00
2013-10-21,60,52,46,44,38,33,76,61,41,30.14,29.93,12,4,0,0.00
2013-10-22,69,56,44,45,41,37,80,59,38,30.09,29.99,13,3,0,0.00
2013-10-23,66,51,36,45,40,34,92,67,43,30.17,30.01,9,2,0,0.00
2013-10-24,53,46,39,43,34,30,84,64,43,30.43,30.12,12,5,0,0.00
2013-10-25,58,50,35,39,33,27,75,54,33,30.48,30.18,9,4,0,0.00
2013-10-26,64,51,45,52,39,-100,91,67,29,30.20,30.12,12,2,0,0.00
2013-10-27,65,48,33,38,32,29,86,58,27,30.19,29.95,9,2,0,0.00
2013-10-28,65,55,46,56,48,-100,95,82,57,30.08,29.97,11,5,0,0.00
2013-10-29,70,64,59,66,61,55,96,92,83,29.99,29.86,12,4,0,0.00
2013-10-30,70,63,52,67,61,50,96,93,83,29.93,29.66,10,3,0,0.00
2013-10-31,63,53,48,51,47,39,98,81,44,29.75,29.57,14,4,0,0.00